sensor_id;sensor_type;location;lat;lon;timestamp;P1;durP1;ratioP1;P2;durP2;ratioP2
22186;SDS011;11259;52.146;12.844;2023-06-22T00:02:24;4.25;;;3.20;;
22186;SDS011;11259;52.146;12.844;2023-06-22T00:04:50;4.78;;;3.28;;
22186;SDS011;11259;52.146;12.844;2023-06-22T00:07:16;4.75;;;3.58;;
22186;SDS011;11259;52.146;12.844;2023-06-22T00:09:41;5.22;;;3.88;;
22186;SDS011;11259;52.146;12.844;2023-06-22T00:12:07;5.50;;;3.83;;
22186;SDS011;11259;52.146;12.844;2023-06-22T00:14:32;5.18;;;3.70;;
22186;SDS011;11259;52.146;12.844;2023-06-22T00:16:58;4.03;;;3.47;;
22186;SDS011;11259;52.146;12.844;2023-06-22T00:19:23;5.13;;;3.20;;
22186;SDS011;11259;52.146;12.844;2023-06-22T00:21:50;4.65;;;3.58;;
22186;SDS011;11259;52.146;12.844;2023-06-22T00:24:15;5.75;;;3.45;;
22186;SDS011;11259;52.146;12.844;2023-06-22T00:26:41;4.57;;;3.15;;
22186;SDS011;11259;52.146;12.844;2023-06-22T00:29:06;4.80;;;3.75;;
22186;SDS011;11259;52.146;12.844;2023-06-22T00:31:31;4.82;;;3.60;;
22186;SDS011;11259;52.146;12.844;2023-06-22T00:33:57;5.65;;;3.53;;
22186;SDS011;11259;52.146;12.844;2023-06-22T00:36:22;5.13;;;3.80;;
22186;SDS011;11259;52.146;12.844;2023-06-22T00:38:49;3.88;;;3.20;;
22186;SDS011;11259;52.146;12.844;2023-06-22T00:41:14;4.72;;;3.20;;
22186;SDS011;11259;52.146;12.844;2023-06-22T00:43:39;4.38;;;3.60;;
22186;SDS011;11259;52.146;12.844;2023-06-22T00:46:04;4.20;;;3.33;;
22186;SDS011;11259;52.146;12.844;2023-06-22T00:48:30;5.60;;;3.63;;
22186;SDS011;11259;52.146;12.844;2023-06-22T00:50:55;5.00;;;3.50;;
22186;SDS011;11259;52.146;12.844;2023-06-22T00:53:21;4.95;;;3.65;;
22186;SDS011;11259;52.146;12.844;2023-06-22T00:55:48;5.97;;;3.92;;
22186;SDS011;11259;52.146;12.844;2023-06-22T00:58:13;4.03;;;3.35;;
22186;SDS011;11259;52.146;12.844;2023-06-22T01:00:39;6.57;;;4.13;;
22186;SDS011;11259;52.146;12.844;2023-06-22T01:03:05;5.75;;;3.75;;
22186;SDS011;11259;52.146;12.844;2023-06-22T01:05:30;5.03;;;3.70;;
22186;SDS011;11259;52.146;12.844;2023-06-22T01:08:01;5.55;;;3.90;;
22186;SDS011;11259;52.146;12.844;2023-06-22T01:10:32;6.35;;;4.32;;
22186;SDS011;11259;52.146;12.844;2023-06-22T01:13:04;4.95;;;3.90;;
22186;SDS011;11259;52.146;12.844;2023-06-22T01:15:33;5.45;;;3.53;;
22186;SDS011;11259;52.146;12.844;2023-06-22T01:18:01;4.53;;;3.78;;
22186;SDS011;11259;52.146;12.844;2023-06-22T01:20:29;5.85;;;4.20;;
22186;SDS011;11259;52.146;12.844;2023-06-22T01:23:00;5.07;;;4.10;;
22186;SDS011;11259;52.146;12.844;2023-06-22T01:25:46;6.53;;;4.53;;
22186;SDS011;11259;52.146;12.844;2023-06-22T01:28:19;5.60;;;3.88;;
22186;SDS011;11259;52.146;12.844;2023-06-22T01:30:50;4.00;;;3.25;;
22186;SDS011;11259;52.146;12.844;2023-06-22T01:33:16;4.75;;;3.75;;
22186;SDS011;11259;52.146;12.844;2023-06-22T01:35:42;5.18;;;3.67;;
22186;SDS011;11259;52.146;12.844;2023-06-22T01:38:08;5.00;;;3.38;;
22186;SDS011;11259;52.146;12.844;2023-06-22T01:40:34;4.28;;;3.33;;
22186;SDS011;11259;52.146;12.844;2023-06-22T01:43:00;5.30;;;3.88;;
22186;SDS011;11259;52.146;12.844;2023-06-22T01:45:26;3.88;;;3.47;;
22186;SDS011;11259;52.146;12.844;2023-06-22T01:47:53;4.70;;;3.35;;
22186;SDS011;11259;52.146;12.844;2023-06-22T01:50:19;4.18;;;3.17;;
22186;SDS011;11259;52.146;12.844;2023-06-22T01:52:45;5.65;;;3.95;;
22186;SDS011;11259;52.146;12.844;2023-06-22T01:55:10;4.35;;;3.83;;
22186;SDS011;11259;52.146;12.844;2023-06-22T01:57:36;6.97;;;3.50;;
22186;SDS011;11259;52.146;12.844;2023-06-22T02:00:02;4.70;;;3.65;;
22186;SDS011;11259;52.146;12.844;2023-06-22T02:02:31;5.80;;;3.95;;
22186;SDS011;11259;52.146;12.844;2023-06-22T02:05:01;4.95;;;3.97;;
22186;SDS011;11259;52.146;12.844;2023-06-22T02:07:29;7.28;;;4.25;;
22186;SDS011;11259;52.146;12.844;2023-06-22T02:09:57;4.82;;;3.78;;
22186;SDS011;11259;52.146;12.844;2023-06-22T02:12:25;5.32;;;3.88;;
22186;SDS011;11259;52.146;12.844;2023-06-22T02:14:51;3.92;;;3.53;;
22186;SDS011;11259;52.146;12.844;2023-06-22T02:17:17;6.00;;;4.32;;
22186;SDS011;11259;52.146;12.844;2023-06-22T02:19:42;5.57;;;4.28;;
22186;SDS011;11259;52.146;12.844;2023-06-22T02:22:09;4.70;;;3.72;;
22186;SDS011;11259;52.146;12.844;2023-06-22T02:24:34;4.82;;;3.60;;
22186;SDS011;11259;52.146;12.844;2023-06-22T02:27:00;6.65;;;3.97;;
22186;SDS011;11259;52.146;12.844;2023-06-22T02:29:27;5.63;;;4.25;;
22186;SDS011;11259;52.146;12.844;2023-06-22T02:31:52;6.40;;;3.97;;
22186;SDS011;11259;52.146;12.844;2023-06-22T02:34:17;5.10;;;3.85;;
22186;SDS011;11259;52.146;12.844;2023-06-22T02:36:43;5.63;;;3.65;;
22186;SDS011;11259;52.146;12.844;2023-06-22T02:39:10;5.72;;;4.05;;
22186;SDS011;11259;52.146;12.844;2023-06-22T02:41:35;6.20;;;4.65;;
22186;SDS011;11259;52.146;12.844;2023-06-22T02:44:00;7.57;;;5.15;;
22186;SDS011;11259;52.146;12.844;2023-06-22T02:46:26;5.78;;;4.10;;
22186;SDS011;11259;52.146;12.844;2023-06-22T02:48:51;4.72;;;3.78;;
22186;SDS011;11259;52.146;12.844;2023-06-22T02:51:16;5.57;;;3.90;;
22186;SDS011;11259;52.146;12.844;2023-06-22T02:53:42;5.93;;;4.60;;
22186;SDS011;11259;52.146;12.844;2023-06-22T02:56:08;5.32;;;4.05;;
22186;SDS011;11259;52.146;12.844;2023-06-22T02:58:33;4.18;;;3.53;;
22186;SDS011;11259;52.146;12.844;2023-06-22T03:00:59;5.47;;;4.35;;
22186;SDS011;11259;52.146;12.844;2023-06-22T03:03:24;5.15;;;3.60;;
22186;SDS011;11259;52.146;12.844;2023-06-22T03:05:49;7.20;;;4.63;;
22186;SDS011;11259;52.146;12.844;2023-06-22T03:08:15;6.13;;;4.07;;
22186;SDS011;11259;52.146;12.844;2023-06-22T03:10:40;4.38;;;3.88;;
22186;SDS011;11259;52.146;12.844;2023-06-22T03:13:07;5.70;;;4.50;;
22186;SDS011;11259;52.146;12.844;2023-06-22T03:15:32;8.32;;;5.15;;
22186;SDS011;11259;52.146;12.844;2023-06-22T03:17:57;15.18;;;4.72;;
22186;SDS011;11259;52.146;12.844;2023-06-22T03:20:23;6.38;;;4.68;;
22186;SDS011;11259;52.146;12.844;2023-06-22T03:22:48;6.70;;;4.10;;
22186;SDS011;11259;52.146;12.844;2023-06-22T03:25:13;7.05;;;4.55;;
22186;SDS011;11259;52.146;12.844;2023-06-22T03:27:41;6.18;;;4.43;;
22186;SDS011;11259;52.146;12.844;2023-06-22T03:30:09;12.95;;;4.43;;
22186;SDS011;11259;52.146;12.844;2023-06-22T03:32:35;6.10;;;4.55;;
22186;SDS011;11259;52.146;12.844;2023-06-22T03:35:00;6.75;;;4.80;;
22186;SDS011;11259;52.146;12.844;2023-06-22T03:37:26;6.03;;;4.35;;
22186;SDS011;11259;52.146;12.844;2023-06-22T03:39:51;6.75;;;4.97;;
22186;SDS011;11259;52.146;12.844;2023-06-22T03:42:17;8.25;;;4.38;;
22186;SDS011;11259;52.146;12.844;2023-06-22T03:44:42;6.25;;;4.00;;
22186;SDS011;11259;52.146;12.844;2023-06-22T03:47:08;6.82;;;4.53;;
22186;SDS011;11259;52.146;12.844;2023-06-22T03:49:34;4.88;;;3.97;;
22186;SDS011;11259;52.146;12.844;2023-06-22T03:51:59;5.93;;;4.30;;
22186;SDS011;11259;52.146;12.844;2023-06-22T03:54:25;6.90;;;4.30;;
22186;SDS011;11259;52.146;12.844;2023-06-22T03:56:50;6.60;;;4.75;;
22186;SDS011;11259;52.146;12.844;2023-06-22T03:59:15;5.82;;;4.53;;
22186;SDS011;11259;52.146;12.844;2023-06-22T04:01:41;5.47;;;4.82;;
22186;SDS011;11259;52.146;12.844;2023-06-22T04:04:07;5.85;;;4.60;;
22186;SDS011;11259;52.146;12.844;2023-06-22T04:06:32;6.95;;;4.50;;
22186;SDS011;11259;52.146;12.844;2023-06-22T04:08:58;6.18;;;4.13;;
22186;SDS011;11259;52.146;12.844;2023-06-22T04:11:23;13.23;;;5.45;;
22186;SDS011;11259;52.146;12.844;2023-06-22T04:13:48;5.97;;;4.57;;
22186;SDS011;11259;52.146;12.844;2023-06-22T04:16:14;6.63;;;4.68;;
22186;SDS011;11259;52.146;12.844;2023-06-22T04:18:39;6.78;;;5.05;;
22186;SDS011;11259;52.146;12.844;2023-06-22T04:21:06;5.53;;;3.97;;
22186;SDS011;11259;52.146;12.844;2023-06-22T04:23:31;6.93;;;4.68;;
22186;SDS011;11259;52.146;12.844;2023-06-22T04:25:56;5.88;;;4.32;;
22186;SDS011;11259;52.146;12.844;2023-06-22T04:28:22;6.00;;;4.28;;
22186;SDS011;11259;52.146;12.844;2023-06-22T04:30:47;5.53;;;4.10;;
22186;SDS011;11259;52.146;12.844;2023-06-22T04:33:13;7.00;;;5.25;;
22186;SDS011;11259;52.146;12.844;2023-06-22T04:35:38;8.52;;;5.13;;
22186;SDS011;11259;52.146;12.844;2023-06-22T04:38:05;5.18;;;4.20;;
22186;SDS011;11259;52.146;12.844;2023-06-22T04:40:30;6.05;;;4.80;;
22186;SDS011;11259;52.146;12.844;2023-06-22T04:42:55;4.85;;;4.30;;
22186;SDS011;11259;52.146;12.844;2023-06-22T04:45:21;6.95;;;4.88;;
22186;SDS011;11259;52.146;12.844;2023-06-22T04:47:46;7.30;;;5.07;;
22186;SDS011;11259;52.146;12.844;2023-06-22T04:50:12;7.68;;;4.85;;
22186;SDS011;11259;52.146;12.844;2023-06-22T04:52:37;5.28;;;4.35;;
22186;SDS011;11259;52.146;12.844;2023-06-22T04:55:04;8.18;;;5.22;;
22186;SDS011;11259;52.146;12.844;2023-06-22T04:57:30;7.18;;;4.35;;
22186;SDS011;11259;52.146;12.844;2023-06-22T04:59:56;4.63;;;3.70;;
22186;SDS011;11259;52.146;12.844;2023-06-22T05:02:21;5.53;;;4.53;;
22186;SDS011;11259;52.146;12.844;2023-06-22T05:04:46;7.68;;;5.50;;
22186;SDS011;11259;52.146;12.844;2023-06-22T05:07:12;5.00;;;4.10;;
22186;SDS011;11259;52.146;12.844;2023-06-22T05:09:38;7.15;;;4.53;;
22186;SDS011;11259;52.146;12.844;2023-06-22T05:12:05;5.00;;;4.47;;
22186;SDS011;11259;52.146;12.844;2023-06-22T05:14:32;6.63;;;4.68;;
22186;SDS011;11259;52.146;12.844;2023-06-22T05:16:57;6.22;;;4.78;;
22186;SDS011;11259;52.146;12.844;2023-06-22T05:19:22;6.40;;;4.57;;
22186;SDS011;11259;52.146;12.844;2023-06-22T05:21:48;7.28;;;4.95;;
22186;SDS011;11259;52.146;12.844;2023-06-22T05:24:13;6.70;;;5.10;;
22186;SDS011;11259;52.146;12.844;2023-06-22T05:26:38;5.82;;;3.75;;
22186;SDS011;11259;52.146;12.844;2023-06-22T05:29:05;6.13;;;4.40;;
22186;SDS011;11259;52.146;12.844;2023-06-22T05:31:30;6.28;;;4.45;;
22186;SDS011;11259;52.146;12.844;2023-06-22T05:33:56;7.85;;;5.10;;
22186;SDS011;11259;52.146;12.844;2023-06-22T05:36:21;7.45;;;4.78;;
22186;SDS011;11259;52.146;12.844;2023-06-22T05:38:47;4.70;;;3.95;;
22186;SDS011;11259;52.146;12.844;2023-06-22T05:41:12;6.15;;;4.25;;
22186;SDS011;11259;52.146;12.844;2023-06-22T05:43:38;4.07;;;3.38;;
22186;SDS011;11259;52.146;12.844;2023-06-22T05:46:04;4.97;;;3.63;;
22186;SDS011;11259;52.146;12.844;2023-06-22T05:48:30;4.72;;;3.53;;
22186;SDS011;11259;52.146;12.844;2023-06-22T05:50:55;6.30;;;3.78;;
22186;SDS011;11259;52.146;12.844;2023-06-22T05:53:20;5.93;;;3.13;;
22186;SDS011;11259;52.146;12.844;2023-06-22T05:55:46;4.20;;;3.15;;
22186;SDS011;11259;52.146;12.844;2023-06-22T05:58:11;4.85;;;3.13;;
22186;SDS011;11259;52.146;12.844;2023-06-22T06:00:37;4.97;;;3.38;;
22186;SDS011;11259;52.146;12.844;2023-06-22T06:03:04;4.20;;;3.42;;
22186;SDS011;11259;52.146;12.844;2023-06-22T06:05:29;4.28;;;3.42;;
22186;SDS011;11259;52.146;12.844;2023-06-22T06:07:54;3.70;;;3.17;;
22186;SDS011;11259;52.146;12.844;2023-06-22T06:10:20;4.45;;;3.22;;
22186;SDS011;11259;52.146;12.844;2023-06-22T06:12:45;3.53;;;3.22;;
22186;SDS011;11259;52.146;12.844;2023-06-22T06:15:10;5.05;;;3.95;;
22186;SDS011;11259;52.146;12.844;2023-06-22T06:17:36;3.92;;;3.10;;
22186;SDS011;11259;52.146;12.844;2023-06-22T06:20:11;3.60;;;3.17;;
22186;SDS011;11259;52.146;12.844;2023-06-22T06:22:37;5.43;;;3.22;;
22186;SDS011;11259;52.146;12.844;2023-06-22T06:25:02;3.05;;;2.58;;
22186;SDS011;11259;52.146;12.844;2023-06-22T06:27:28;4.03;;;3.38;;
22186;SDS011;11259;52.146;12.844;2023-06-22T06:29:53;4.00;;;3.40;;
22186;SDS011;11259;52.146;12.844;2023-06-22T06:32:18;3.72;;;2.88;;
22186;SDS011;11259;52.146;12.844;2023-06-22T06:34:44;4.50;;;3.00;;
22186;SDS011;11259;52.146;12.844;2023-06-22T06:37:10;4.70;;;3.35;;
22186;SDS011;11259;52.146;12.844;2023-06-22T06:39:36;3.15;;;2.78;;
22186;SDS011;11259;52.146;12.844;2023-06-22T06:42:01;4.78;;;3.15;;
22186;SDS011;11259;52.146;12.844;2023-06-22T06:44:26;3.70;;;3.22;;
22186;SDS011;11259;52.146;12.844;2023-06-22T06:46:52;3.58;;;2.75;;
22186;SDS011;11259;52.146;12.844;2023-06-22T06:49:17;4.97;;;3.00;;
22186;SDS011;11259;52.146;12.844;2023-06-22T06:51:42;4.68;;;3.10;;
22186;SDS011;11259;52.146;12.844;2023-06-22T06:54:09;3.10;;;2.80;;
22186;SDS011;11259;52.146;12.844;2023-06-22T06:56:34;4.25;;;3.33;;
22186;SDS011;11259;52.146;12.844;2023-06-22T06:59:00;3.38;;;3.03;;
22186;SDS011;11259;52.146;12.844;2023-06-22T07:01:25;3.03;;;2.72;;
22186;SDS011;11259;52.146;12.844;2023-06-22T07:03:50;3.58;;;2.75;;
22186;SDS011;11259;52.146;12.844;2023-06-22T07:06:16;3.72;;;3.38;;
22186;SDS011;11259;52.146;12.844;2023-06-22T07:08:41;4.38;;;3.33;;
22186;SDS011;11259;52.146;12.844;2023-06-22T07:11:08;4.07;;;3.00;;
22186;SDS011;11259;52.146;12.844;2023-06-22T07:13:33;4.03;;;3.47;;
22186;SDS011;11259;52.146;12.844;2023-06-22T07:15:58;3.78;;;2.95;;
22186;SDS011;11259;52.146;12.844;2023-06-22T07:18:24;4.22;;;3.30;;
22186;SDS011;11259;52.146;12.844;2023-06-22T07:20:49;3.40;;;2.85;;
22186;SDS011;11259;52.146;12.844;2023-06-22T07:23:14;3.63;;;3.05;;
22186;SDS011;11259;52.146;12.844;2023-06-22T07:25:40;3.65;;;3.05;;
22186;SDS011;11259;52.146;12.844;2023-06-22T07:28:06;3.45;;;2.85;;
22186;SDS011;11259;52.146;12.844;2023-06-22T07:30:32;4.22;;;3.53;;
22186;SDS011;11259;52.146;12.844;2023-06-22T07:32:58;4.20;;;2.72;;
22186;SDS011;11259;52.146;12.844;2023-06-22T07:35:24;3.75;;;3.08;;
22186;SDS011;11259;52.146;12.844;2023-06-22T07:37:50;4.90;;;3.33;;
22186;SDS011;11259;52.146;12.844;2023-06-22T07:40:15;4.07;;;3.20;;
22186;SDS011;11259;52.146;12.844;2023-06-22T07:42:40;3.78;;;3.35;;
22186;SDS011;11259;52.146;12.844;2023-06-22T07:45:07;11.77;;;3.50;;
22186;SDS011;11259;52.146;12.844;2023-06-22T07:47:33;3.47;;;3.03;;
22186;SDS011;11259;52.146;12.844;2023-06-22T07:49:59;3.90;;;3.22;;
22186;SDS011;11259;52.146;12.844;2023-06-22T07:52:24;3.22;;;2.92;;
22186;SDS011;11259;52.146;12.844;2023-06-22T07:54:49;4.45;;;3.28;;
22186;SDS011;11259;52.146;12.844;2023-06-22T07:57:15;3.20;;;2.90;;
22186;SDS011;11259;52.146;12.844;2023-06-22T07:59:40;3.95;;;3.05;;
22186;SDS011;11259;52.146;12.844;2023-06-22T08:02:07;3.72;;;3.20;;
22186;SDS011;11259;52.146;12.844;2023-06-22T08:04:32;3.33;;;2.83;;
22186;SDS011;11259;52.146;12.844;2023-06-22T08:06:57;4.57;;;3.28;;
22186;SDS011;11259;52.146;12.844;2023-06-22T08:09:23;4.28;;;3.25;;
22186;SDS011;11259;52.146;12.844;2023-06-22T08:11:48;3.25;;;2.80;;
22186;SDS011;11259;52.146;12.844;2023-06-22T08:14:13;3.45;;;3.00;;
22186;SDS011;11259;52.146;12.844;2023-06-22T08:16:39;4.10;;;3.40;;
22186;SDS011;11259;52.146;12.844;2023-06-22T08:19:05;5.70;;;3.88;;
22186;SDS011;11259;52.146;12.844;2023-06-22T08:21:31;3.28;;;2.97;;
22186;SDS011;11259;52.146;12.844;2023-06-22T08:23:56;4.78;;;3.42;;
22186;SDS011;11259;52.146;12.844;2023-06-22T08:26:21;6.10;;;3.13;;
22186;SDS011;11259;52.146;12.844;2023-06-22T08:28:47;3.33;;;3.03;;
22186;SDS011;11259;52.146;12.844;2023-06-22T08:31:12;4.47;;;3.35;;
22186;SDS011;11259;52.146;12.844;2023-06-22T08:33:37;4.22;;;3.47;;
22186;SDS011;11259;52.146;12.844;2023-06-22T08:36:04;4.85;;;2.92;;
22186;SDS011;11259;52.146;12.844;2023-06-22T08:38:30;3.85;;;3.25;;
22186;SDS011;11259;52.146;12.844;2023-06-22T08:40:55;3.92;;;3.00;;
22186;SDS011;11259;52.146;12.844;2023-06-22T08:43:20;4.97;;;3.55;;
22186;SDS011;11259;52.146;12.844;2023-06-22T08:45:46;3.75;;;3.30;;
22186;SDS011;11259;52.146;12.844;2023-06-22T08:48:11;3.80;;;3.08;;
22186;SDS011;11259;52.146;12.844;2023-06-22T08:50:37;3.75;;;2.90;;
22186;SDS011;11259;52.146;12.844;2023-06-22T08:53:03;3.25;;;2.70;;
22186;SDS011;11259;52.146;12.844;2023-06-22T08:55:29;5.00;;;3.85;;
22186;SDS011;11259;52.146;12.844;2023-06-22T08:57:54;4.13;;;2.92;;
22186;SDS011;11259;52.146;12.844;2023-06-22T09:00:19;3.63;;;3.03;;
22186;SDS011;11259;52.146;12.844;2023-06-22T09:02:46;2.78;;;2.47;;
22186;SDS011;11259;52.146;12.844;2023-06-22T09:05:11;3.75;;;3.08;;
22186;SDS011;11259;52.146;12.844;2023-06-22T09:07:36;4.30;;;3.25;;
22186;SDS011;11259;52.146;12.844;2023-06-22T09:10:03;6.22;;;3.40;;
22186;SDS011;11259;52.146;12.844;2023-06-22T09:12:29;3.83;;;3.03;;
22186;SDS011;11259;52.146;12.844;2023-06-22T09:14:54;3.60;;;2.75;;
22186;SDS011;11259;52.146;12.844;2023-06-22T09:17:20;4.55;;;3.20;;
22186;SDS011;11259;52.146;12.844;2023-06-22T09:19:45;3.53;;;3.13;;
22186;SDS011;11259;52.146;12.844;2023-06-22T09:22:10;4.03;;;3.20;;
22186;SDS011;11259;52.146;12.844;2023-06-22T09:24:36;3.95;;;3.53;;
22186;SDS011;11259;52.146;12.844;2023-06-22T09:27:02;4.53;;;3.55;;
22186;SDS011;11259;52.146;12.844;2023-06-22T09:29:28;4.20;;;3.63;;
22186;SDS011;11259;52.146;12.844;2023-06-22T09:31:53;4.55;;;3.55;;
22186;SDS011;11259;52.146;12.844;2023-06-22T09:34:18;5.05;;;3.65;;
22186;SDS011;11259;52.146;12.844;2023-06-22T09:36:44;3.22;;;2.70;;
22186;SDS011;11259;52.146;12.844;2023-06-22T09:39:09;3.50;;;3.00;;
22186;SDS011;11259;52.146;12.844;2023-06-22T09:41:34;3.50;;;3.00;;
22186;SDS011;11259;52.146;12.844;2023-06-22T09:44:01;3.63;;;3.28;;
22186;SDS011;11259;52.146;12.844;2023-06-22T09:46:26;3.20;;;2.80;;
22186;SDS011;11259;52.146;12.844;2023-06-22T09:48:52;7.85;;;3.60;;
22186;SDS011;11259;52.146;12.844;2023-06-22T09:51:17;3.65;;;2.85;;
22186;SDS011;11259;52.146;12.844;2023-06-22T09:53:42;4.53;;;3.38;;
22186;SDS011;11259;52.146;12.844;2023-06-22T09:56:09;4.28;;;3.35;;
22186;SDS011;11259;52.146;12.844;2023-06-22T09:58:34;3.85;;;3.10;;
22186;SDS011;11259;52.146;12.844;2023-06-22T10:01:01;5.22;;;3.13;;
22186;SDS011;11259;52.146;12.844;2023-06-22T10:03:26;3.55;;;3.10;;
22186;SDS011;11259;52.146;12.844;2023-06-22T10:05:51;3.58;;;3.03;;
22186;SDS011;11259;52.146;12.844;2023-06-22T10:08:17;3.58;;;2.90;;
22186;SDS011;11259;52.146;12.844;2023-06-22T10:10:42;3.38;;;2.80;;
22186;SDS011;11259;52.146;12.844;2023-06-22T10:13:08;3.55;;;3.08;;
22186;SDS011;11259;52.146;12.844;2023-06-22T10:15:34;3.58;;;3.10;;
22186;SDS011;11259;52.146;12.844;2023-06-22T10:18:00;3.80;;;3.08;;
22186;SDS011;11259;52.146;12.844;2023-06-22T10:20:26;3.05;;;2.75;;
22186;SDS011;11259;52.146;12.844;2023-06-22T10:22:51;3.88;;;3.28;;
22186;SDS011;11259;52.146;12.844;2023-06-22T10:25:16;3.25;;;2.95;;
22186;SDS011;11259;52.146;12.844;2023-06-22T10:27:42;3.38;;;2.75;;
22186;SDS011;11259;52.146;12.844;2023-06-22T10:30:07;3.60;;;2.97;;
22186;SDS011;11259;52.146;12.844;2023-06-22T10:32:34;3.80;;;3.00;;
22186;SDS011;11259;52.146;12.844;2023-06-22T10:35:01;4.47;;;3.28;;
22186;SDS011;11259;52.146;12.844;2023-06-22T10:37:26;3.83;;;3.00;;
22186;SDS011;11259;52.146;12.844;2023-06-22T10:39:51;5.70;;;2.72;;
22186;SDS011;11259;52.146;12.844;2023-06-22T10:42:17;2.90;;;2.60;;
22186;SDS011;11259;52.146;12.844;2023-06-22T10:44:42;8.20;;;3.42;;
22186;SDS011;11259;52.146;12.844;2023-06-22T10:47:08;3.20;;;2.90;;
22186;SDS011;11259;52.146;12.844;2023-06-22T10:49:33;3.50;;;3.10;;
22186;SDS011;11259;52.146;12.844;2023-06-22T10:52:00;8.77;;;3.20;;
22186;SDS011;11259;52.146;12.844;2023-06-22T10:54:25;3.75;;;2.65;;
22186;SDS011;11259;52.146;12.844;2023-06-22T10:56:50;3.30;;;2.85;;
22186;SDS011;11259;52.146;12.844;2023-06-22T10:59:16;3.17;;;2.70;;
22186;SDS011;11259;52.146;12.844;2023-06-22T11:01:41;3.42;;;2.40;;
22186;SDS011;11259;52.146;12.844;2023-06-22T11:04:06;4.72;;;3.17;;
22186;SDS011;11259;52.146;12.844;2023-06-22T11:06:32;11.77;;;3.15;;
22186;SDS011;11259;52.146;12.844;2023-06-22T11:08:58;3.00;;;2.70;;
22186;SDS011;11259;52.146;12.844;2023-06-22T11:11:24;3.42;;;3.13;;
22186;SDS011;11259;52.146;12.844;2023-06-22T11:13:50;3.00;;;2.70;;
22186;SDS011;11259;52.146;12.844;2023-06-22T11:16:15;2.60;;;2.40;;
22186;SDS011;11259;52.146;12.844;2023-06-22T11:18:40;3.25;;;2.90;;
22186;SDS011;11259;52.146;12.844;2023-06-22T11:21:06;3.20;;;2.85;;
22186;SDS011;11259;52.146;12.844;2023-06-22T11:23:31;2.72;;;2.45;;
22186;SDS011;11259;52.146;12.844;2023-06-22T11:25:58;3.33;;;2.83;;
22186;SDS011;11259;52.146;12.844;2023-06-22T11:28:23;3.33;;;2.80;;
22186;SDS011;11259;52.146;12.844;2023-06-22T11:30:48;3.13;;;2.83;;
22186;SDS011;11259;52.146;12.844;2023-06-22T11:33:14;4.75;;;3.00;;
22186;SDS011;11259;52.146;12.844;2023-06-22T11:35:39;2.90;;;2.60;;
22186;SDS011;11259;52.146;12.844;2023-06-22T11:38:04;3.72;;;2.88;;
22186;SDS011;11259;52.146;12.844;2023-06-22T11:40:30;4.28;;;2.92;;
22186;SDS011;11259;52.146;12.844;2023-06-22T11:42:56;3.78;;;2.88;;
22186;SDS011;11259;52.146;12.844;2023-06-22T11:45:22;4.18;;;2.70;;
22186;SDS011;11259;52.146;12.844;2023-06-22T11:47:47;3.35;;;2.53;;
22186;SDS011;11259;52.146;12.844;2023-06-22T11:50:12;2.92;;;2.63;;
22186;SDS011;11259;52.146;12.844;2023-06-22T11:52:38;3.50;;;2.72;;
22186;SDS011;11259;52.146;12.844;2023-06-22T11:55:03;4.50;;;3.47;;
22186;SDS011;11259;52.146;12.844;2023-06-22T11:57:29;3.50;;;2.50;;
22186;SDS011;11259;52.146;12.844;2023-06-22T11:59:56;3.15;;;2.67;;
22186;SDS011;11259;52.146;12.844;2023-06-22T12:02:21;3.00;;;2.53;;
22186;SDS011;11259;52.146;12.844;2023-06-22T12:04:47;3.55;;;3.03;;
22186;SDS011;11259;52.146;12.844;2023-06-22T12:07:12;4.00;;;2.97;;
22186;SDS011;11259;52.146;12.844;2023-06-22T12:09:37;3.08;;;2.53;;
22186;SDS011;11259;52.146;12.844;2023-06-22T12:12:03;3.03;;;2.30;;
22186;SDS011;11259;52.146;12.844;2023-06-22T12:14:29;2.58;;;2.28;;
22186;SDS011;11259;52.146;12.844;2023-06-22T12:16:55;2.55;;;2.28;;
22186;SDS011;11259;52.146;12.844;2023-06-22T12:19:20;2.75;;;2.28;;
22186;SDS011;11259;52.146;12.844;2023-06-22T12:21:46;3.25;;;2.50;;
22186;SDS011;11259;52.146;12.844;2023-06-22T12:24:11;2.55;;;2.10;;
22186;SDS011;11259;52.146;12.844;2023-06-22T12:26:36;4.10;;;2.60;;
22186;SDS011;11259;52.146;12.844;2023-06-22T12:29:02;2.78;;;2.25;;
22186;SDS011;11259;52.146;12.844;2023-06-22T12:31:27;3.90;;;2.22;;
22186;SDS011;11259;52.146;12.844;2023-06-22T12:33:54;2.97;;;2.30;;
22186;SDS011;11259;52.146;12.844;2023-06-22T12:36:19;2.25;;;1.90;;
22186;SDS011;11259;52.146;12.844;2023-06-22T12:38:44;2.95;;;2.55;;
22186;SDS011;11259;52.146;12.844;2023-06-22T12:41:10;2.28;;;2.08;;
22186;SDS011;11259;52.146;12.844;2023-06-22T12:43:35;2.42;;;2.20;;
22186;SDS011;11259;52.146;12.844;2023-06-22T12:46:00;3.55;;;2.65;;
22186;SDS011;11259;52.146;12.844;2023-06-22T12:48:26;2.25;;;1.90;;
22186;SDS011;11259;52.146;12.844;2023-06-22T12:50:53;2.97;;;2.00;;
22186;SDS011;11259;52.146;12.844;2023-06-22T12:53:18;2.20;;;1.90;;
22186;SDS011;11259;52.146;12.844;2023-06-22T12:55:44;2.47;;;2.28;;
22186;SDS011;11259;52.146;12.844;2023-06-22T12:58:09;2.47;;;2.28;;
22186;SDS011;11259;52.146;12.844;2023-06-22T13:00:34;2.42;;;2.10;;
22186;SDS011;11259;52.146;12.844;2023-06-22T13:03:00;2.47;;;2.13;;
22186;SDS011;11259;52.146;12.844;2023-06-22T13:05:25;2.33;;;2.13;;
22186;SDS011;11259;52.146;12.844;2023-06-22T13:07:52;8.48;;;2.17;;
22186;SDS011;11259;52.146;12.844;2023-06-22T13:10:17;1.98;;;1.75;;
22186;SDS011;11259;52.146;12.844;2023-06-22T13:12:42;2.97;;;2.17;;
22186;SDS011;11259;52.146;12.844;2023-06-22T13:15:08;3.20;;;2.13;;
22186;SDS011;11259;52.146;12.844;2023-06-22T13:17:33;2.70;;;2.17;;
22186;SDS011;11259;52.146;12.844;2023-06-22T13:19:59;3.17;;;2.05;;
22186;SDS011;11259;52.146;12.844;2023-06-22T13:22:25;2.38;;;1.70;;
22186;SDS011;11259;52.146;12.844;2023-06-22T13:24:55;2.30;;;1.70;;
22186;SDS011;11259;52.146;12.844;2023-06-22T13:27:21;3.17;;;2.10;;
22186;SDS011;11259;52.146;12.844;2023-06-22T13:29:46;2.55;;;2.05;;
22186;SDS011;11259;52.146;12.844;2023-06-22T13:32:12;2.65;;;1.63;;
22186;SDS011;11259;52.146;12.844;2023-06-22T13:34:37;2.20;;;1.95;;
22186;SDS011;11259;52.146;12.844;2023-06-22T13:37:02;2.10;;;1.77;;
22186;SDS011;11259;52.146;12.844;2023-06-22T13:39:28;2.90;;;2.40;;
22186;SDS011;11259;52.146;12.844;2023-06-22T13:41:54;2.65;;;2.28;;
22186;SDS011;11259;52.146;12.844;2023-06-22T13:44:20;2.58;;;1.80;;
22186;SDS011;11259;52.146;12.844;2023-06-22T13:46:45;2.30;;;2.10;;
22186;SDS011;11259;52.146;12.844;2023-06-22T13:49:10;2.42;;;2.10;;
22186;SDS011;11259;52.146;12.844;2023-06-22T13:51:36;2.30;;;1.83;;
22186;SDS011;11259;52.146;12.844;2023-06-22T13:54:01;3.15;;;2.05;;
22186;SDS011;11259;52.146;12.844;2023-06-22T13:56:26;2.65;;;1.90;;
22186;SDS011;11259;52.146;12.844;2023-06-22T13:58:53;3.47;;;2.10;;
22186;SDS011;11259;52.146;12.844;2023-06-22T14:01:18;2.22;;;1.67;;
22186;SDS011;11259;52.146;12.844;2023-06-22T14:03:44;2.30;;;2.08;;
22186;SDS011;11259;52.146;12.844;2023-06-22T14:06:09;2.20;;;1.83;;
22186;SDS011;11259;52.146;12.844;2023-06-22T14:08:36;2.38;;;2.17;;
22186;SDS011;11259;52.146;12.844;2023-06-22T14:11:01;2.28;;;1.98;;
22186;SDS011;11259;52.146;12.844;2023-06-22T14:13:26;2.75;;;2.45;;
22186;SDS011;11259;52.146;12.844;2023-06-22T14:15:53;2.60;;;1.85;;
22186;SDS011;11259;52.146;12.844;2023-06-22T14:18:18;2.10;;;1.65;;
22186;SDS011;11259;52.146;12.844;2023-06-22T14:20:44;2.38;;;2.17;;
22186;SDS011;11259;52.146;12.844;2023-06-22T14:23:09;2.35;;;1.95;;
22186;SDS011;11259;52.146;12.844;2023-06-22T14:25:34;3.15;;;1.95;;